sensor_id;sensor_type;location;lat;lon;timestamp;P1;durP1;ratioP1;P2;durP2;ratioP2
16612;SDS011;8419;52.358;9.752;2022-10-14T00:02:20;17.70;;;11.55;;
16612;SDS011;8419;52.358;9.752;2022-10-14T00:05:06;19.35;;;11.77;;
16612;SDS011;8419;52.358;9.752;2022-10-14T00:07:53;15.98;;;11.90;;
16612;SDS011;8419;52.358;9.752;2022-10-14T00:10:39;18.52;;;10.80;;
16612;SDS011;8419;52.358;9.752;2022-10-14T00:13:25;21.83;;;12.00;;
16612;SDS011;8419;52.358;9.752;2022-10-14T00:16:15;16.23;;;11.07;;
16612;SDS011;8419;52.358;9.752;2022-10-14T00:19:03;19.90;;;10.77;;
16612;SDS011;8419;52.358;9.752;2022-10-14T00:21:49;19.33;;;11.40;;
16612;SDS011;8419;52.358;9.752;2022-10-14T00:24:34;19.70;;;11.43;;
16612;SDS011;8419;52.358;9.752;2022-10-14T00:27:20;19.67;;;11.82;;
16612;SDS011;8419;52.358;9.752;2022-10-14T00:30:07;17.17;;;11.07;;
16612;SDS011;8419;52.358;9.752;2022-10-14T00:32:54;18.08;;;10.43;;
16612;SDS011;8419;52.358;9.752;2022-10-14T00:35:39;17.50;;;10.77;;
16612;SDS011;8419;52.358;9.752;2022-10-14T00:38:25;15.40;;;10.90;;
16612;SDS011;8419;52.358;9.752;2022-10-14T00:41:12;17.00;;;10.18;;
16612;SDS011;8419;52.358;9.752;2022-10-14T00:44:00;19.10;;;10.68;;
16612;SDS011;8419;52.358;9.752;2022-10-14T00:46:48;17.58;;;11.45;;
16612;SDS011;8419;52.358;9.752;2022-10-14T00:49:36;18.67;;;12.27;;
16612;SDS011;8419;52.358;9.752;2022-10-14T00:52:25;17.58;;;11.05;;
16612;SDS011;8419;52.358;9.752;2022-10-14T00:55:12;18.45;;;10.95;;
16612;SDS011;8419;52.358;9.752;2022-10-14T00:58:01;18.90;;;11.27;;
16612;SDS011;8419;52.358;9.752;2022-10-14T01:00:47;17.70;;;11.12;;
16612;SDS011;8419;52.358;9.752;2022-10-14T01:03:33;19.35;;;11.55;;
16612;SDS011;8419;52.358;9.752;2022-10-14T01:06:20;17.52;;;11.55;;
16612;SDS011;8419;52.358;9.752;2022-10-14T01:09:18;19.75;;;11.27;;
16612;SDS011;8419;52.358;9.752;2022-10-14T01:12:08;17.98;;;11.18;;
16612;SDS011;8419;52.358;9.752;2022-10-14T01:15:10;15.35;;;11.05;;
16612;SDS011;8419;52.358;9.752;2022-10-14T01:18:12;17.65;;;11.43;;
16612;SDS011;8419;52.358;9.752;2022-10-14T01:21:13;14.95;;;10.45;;
16612;SDS011;8419;52.358;9.752;2022-10-14T01:24:21;18.83;;;10.95;;
16612;SDS011;8419;52.358;9.752;2022-10-14T01:27:35;18.17;;;10.68;;
16612;SDS011;8419;52.358;9.752;2022-10-14T01:30:49;17.67;;;11.48;;
16612;SDS011;8419;52.358;9.752;2022-10-14T01:33:45;18.35;;;11.48;;
16612;SDS011;8419;52.358;9.752;2022-10-14T01:36:35;18.45;;;12.00;;
16612;SDS011;8419;52.358;9.752;2022-10-14T01:39:26;17.10;;;10.70;;
16612;SDS011;8419;52.358;9.752;2022-10-14T01:42:17;17.95;;;11.73;;
16612;SDS011;8419;52.358;9.752;2022-10-14T01:45:08;21.23;;;12.82;;
16612;SDS011;8419;52.358;9.752;2022-10-14T01:48:00;19.67;;;12.30;;
16612;SDS011;8419;52.358;9.752;2022-10-14T01:50:49;19.08;;;12.23;;
16612;SDS011;8419;52.358;9.752;2022-10-14T01:53:38;20.23;;;12.48;;
16612;SDS011;8419;52.358;9.752;2022-10-14T01:56:27;20.65;;;12.05;;
16612;SDS011;8419;52.358;9.752;2022-10-14T01:59:15;20.40;;;12.37;;
16612;SDS011;8419;52.358;9.752;2022-10-14T02:02:05;23.00;;;12.35;;
16612;SDS011;8419;52.358;9.752;2022-10-14T02:04:50;18.52;;;11.23;;
16612;SDS011;8419;52.358;9.752;2022-10-14T02:07:37;20.33;;;11.73;;
16612;SDS011;8419;52.358;9.752;2022-10-14T02:10:31;19.83;;;12.35;;
16612;SDS011;8419;52.358;9.752;2022-10-14T02:13:42;19.30;;;11.98;;
16612;SDS011;8419;52.358;9.752;2022-10-14T02:16:44;18.73;;;11.68;;
16612;SDS011;8419;52.358;9.752;2022-10-14T02:19:36;16.48;;;11.50;;
16612;SDS011;8419;52.358;9.752;2022-10-14T02:22:27;16.25;;;11.02;;
16612;SDS011;8419;52.358;9.752;2022-10-14T02:25:19;19.50;;;10.80;;
16612;SDS011;8419;52.358;9.752;2022-10-14T02:28:09;18.37;;;11.52;;
16612;SDS011;8419;52.358;9.752;2022-10-14T02:30:59;18.23;;;10.60;;
16612;SDS011;8419;52.358;9.752;2022-10-14T02:33:49;17.45;;;11.30;;
16612;SDS011;8419;52.358;9.752;2022-10-14T02:36:40;19.17;;;11.15;;
16612;SDS011;8419;52.358;9.752;2022-10-14T02:39:30;18.08;;;10.85;;
16612;SDS011;8419;52.358;9.752;2022-10-14T02:42:19;16.10;;;10.45;;
16612;SDS011;8419;52.358;9.752;2022-10-14T02:45:06;18.65;;;10.98;;
16612;SDS011;8419;52.358;9.752;2022-10-14T02:47:57;17.40;;;10.60;;
16612;SDS011;8419;52.358;9.752;2022-10-14T02:50:43;18.33;;;10.70;;
16612;SDS011;8419;52.358;9.752;2022-10-14T02:53:29;18.00;;;10.70;;
16612;SDS011;8419;52.358;9.752;2022-10-14T02:56:15;16.62;;;10.60;;
16612;SDS011;8419;52.358;9.752;2022-10-14T02:59:01;15.68;;;11.32;;
16612;SDS011;8419;52.358;9.752;2022-10-14T03:01:47;17.73;;;11.20;;
16612;SDS011;8419;52.358;9.752;2022-10-14T03:04:35;16.85;;;11.25;;
16612;SDS011;8419;52.358;9.752;2022-10-14T03:07:21;19.33;;;11.40;;
16612;SDS011;8419;52.358;9.752;2022-10-14T03:10:08;18.33;;;10.90;;
16612;SDS011;8419;52.358;9.752;2022-10-14T03:12:53;19.73;;;10.82;;
16612;SDS011;8419;52.358;9.752;2022-10-14T03:15:41;22.27;;;11.60;;
16612;SDS011;8419;52.358;9.752;2022-10-14T03:18:27;18.02;;;11.45;;
16612;SDS011;8419;52.358;9.752;2022-10-14T03:21:15;20.23;;;12.18;;
16612;SDS011;8419;52.358;9.752;2022-10-14T03:24:02;16.85;;;11.82;;
16612;SDS011;8419;52.358;9.752;2022-10-14T03:26:48;20.17;;;12.25;;
16612;SDS011;8419;52.358;9.752;2022-10-14T03:29:39;22.70;;;12.50;;
16612;SDS011;8419;52.358;9.752;2022-10-14T03:32:27;18.95;;;11.45;;
16612;SDS011;8419;52.358;9.752;2022-10-14T03:35:13;21.50;;;12.48;;
16612;SDS011;8419;52.358;9.752;2022-10-14T03:37:59;20.50;;;12.18;;
16612;SDS011;8419;52.358;9.752;2022-10-14T03:40:47;21.40;;;12.02;;
16612;SDS011;8419;52.358;9.752;2022-10-14T03:43:33;19.50;;;12.13;;
16612;SDS011;8419;52.358;9.752;2022-10-14T03:46:19;22.75;;;12.95;;
16612;SDS011;8419;52.358;9.752;2022-10-14T03:49:04;23.75;;;12.45;;
16612;SDS011;8419;52.358;9.752;2022-10-14T03:51:50;22.00;;;12.73;;
16612;SDS011;8419;52.358;9.752;2022-10-14T03:54:36;20.95;;;12.80;;
16612;SDS011;8419;52.358;9.752;2022-10-14T03:57:22;18.75;;;12.45;;
16612;SDS011;8419;52.358;9.752;2022-10-14T04:00:09;17.50;;;11.93;;
16612;SDS011;8419;52.358;9.752;2022-10-14T04:02:56;21.05;;;12.98;;
16612;SDS011;8419;52.358;9.752;2022-10-14T04:05:42;19.15;;;12.95;;
16612;SDS011;8419;52.358;9.752;2022-10-14T04:08:28;20.62;;;13.65;;
16612;SDS011;8419;52.358;9.752;2022-10-14T04:11:13;20.90;;;12.88;;
16612;SDS011;8419;52.358;9.752;2022-10-14T04:14:01;24.05;;;13.80;;
16612;SDS011;8419;52.358;9.752;2022-10-14T04:16:47;21.73;;;13.68;;
16612;SDS011;8419;52.358;9.752;2022-10-14T04:19:33;22.42;;;13.45;;
16612;SDS011;8419;52.358;9.752;2022-10-14T04:22:20;23.45;;;13.43;;
16612;SDS011;8419;52.358;9.752;2022-10-14T04:25:07;22.23;;;13.95;;
16612;SDS011;8419;52.358;9.752;2022-10-14T04:27:54;23.30;;;13.82;;
16612;SDS011;8419;52.358;9.752;2022-10-14T04:30:40;22.10;;;14.05;;
16612;SDS011;8419;52.358;9.752;2022-10-14T04:33:28;21.80;;;14.07;;
16612;SDS011;8419;52.358;9.752;2022-10-14T04:36:14;21.77;;;13.95;;
16612;SDS011;8419;52.358;9.752;2022-10-14T04:38:59;25.73;;;14.40;;
16612;SDS011;8419;52.358;9.752;2022-10-14T04:41:45;22.37;;;13.40;;
16612;SDS011;8419;52.358;9.752;2022-10-14T04:44:31;22.98;;;14.43;;
16612;SDS011;8419;52.358;9.752;2022-10-14T04:47:17;20.98;;;14.02;;
16612;SDS011;8419;52.358;9.752;2022-10-14T04:50:04;24.55;;;12.95;;
16612;SDS011;8419;52.358;9.752;2022-10-14T04:52:50;25.52;;;15.18;;
16612;SDS011;8419;52.358;9.752;2022-10-14T04:55:36;23.35;;;13.52;;
16612;SDS011;8419;52.358;9.752;2022-10-14T04:58:22;24.37;;;14.43;;
16612;SDS011;8419;52.358;9.752;2022-10-14T05:01:07;23.08;;;13.95;;
16612;SDS011;8419;52.358;9.752;2022-10-14T05:03:53;24.63;;;14.68;;
16612;SDS011;8419;52.358;9.752;2022-10-14T05:06:39;26.35;;;14.48;;
16612;SDS011;8419;52.358;9.752;2022-10-14T05:09:26;28.40;;;14.50;;
16612;SDS011;8419;52.358;9.752;2022-10-14T05:12:11;26.10;;;15.23;;
16612;SDS011;8419;52.358;9.752;2022-10-14T05:14:57;29.25;;;15.02;;
16612;SDS011;8419;52.358;9.752;2022-10-14T05:17:43;28.70;;;14.73;;
16612;SDS011;8419;52.358;9.752;2022-10-14T05:20:29;26.73;;;15.05;;
16612;SDS011;8419;52.358;9.752;2022-10-14T05:23:14;28.77;;;15.18;;
16612;SDS011;8419;52.358;9.752;2022-10-14T05:26:00;32.40;;;17.83;;
16612;SDS011;8419;52.358;9.752;2022-10-14T05:28:46;28.17;;;14.40;;
16612;SDS011;8419;52.358;9.752;2022-10-14T05:31:31;31.08;;;17.52;;
16612;SDS011;8419;52.358;9.752;2022-10-14T05:34:17;28.58;;;16.00;;
16612;SDS011;8419;52.358;9.752;2022-10-14T05:37:03;36.00;;;15.30;;
16612;SDS011;8419;52.358;9.752;2022-10-14T05:39:49;30.55;;;15.50;;
16612;SDS011;8419;52.358;9.752;2022-10-14T05:42:34;27.95;;;15.80;;
16612;SDS011;8419;52.358;9.752;2022-10-14T05:45:23;27.83;;;16.35;;
16612;SDS011;8419;52.358;9.752;2022-10-14T05:48:10;32.22;;;15.98;;
16612;SDS011;8419;52.358;9.752;2022-10-14T05:50:55;31.55;;;16.52;;
16612;SDS011;8419;52.358;9.752;2022-10-14T05:53:45;28.77;;;15.63;;
16612;SDS011;8419;52.358;9.752;2022-10-14T05:56:31;29.40;;;16.33;;
16612;SDS011;8419;52.358;9.752;2022-10-14T05:59:17;29.00;;;16.52;;
16612;SDS011;8419;52.358;9.752;2022-10-14T06:02:03;31.48;;;16.55;;
16612;SDS011;8419;52.358;9.752;2022-10-14T06:04:48;31.08;;;16.85;;
16612;SDS011;8419;52.358;9.752;2022-10-14T06:07:34;29.65;;;16.30;;
16612;SDS011;8419;52.358;9.752;2022-10-14T06:10:20;33.97;;;16.98;;
16612;SDS011;8419;52.358;9.752;2022-10-14T06:13:05;32.40;;;17.60;;
16612;SDS011;8419;52.358;9.752;2022-10-14T06:15:51;25.67;;;15.45;;
16612;SDS011;8419;52.358;9.752;2022-10-14T06:18:37;30.62;;;17.30;;
16612;SDS011;8419;52.358;9.752;2022-10-14T06:21:26;29.73;;;16.65;;
16612;SDS011;8419;52.358;9.752;2022-10-14T06:24:12;28.80;;;16.65;;
16612;SDS011;8419;52.358;9.752;2022-10-14T06:27:00;29.33;;;16.67;;
16612;SDS011;8419;52.358;9.752;2022-10-14T06:29:45;28.33;;;16.12;;
16612;SDS011;8419;52.358;9.752;2022-10-14T06:32:31;31.48;;;17.15;;
16612;SDS011;8419;52.358;9.752;2022-10-14T06:35:16;29.92;;;16.95;;
16612;SDS011;8419;52.358;9.752;2022-10-14T06:38:03;30.05;;;15.85;;
16612;SDS011;8419;52.358;9.752;2022-10-14T06:40:49;30.35;;;16.25;;
16612;SDS011;8419;52.358;9.752;2022-10-14T06:43:36;28.40;;;16.25;;
16612;SDS011;8419;52.358;9.752;2022-10-14T06:46:22;32.05;;;17.42;;
16612;SDS011;8419;52.358;9.752;2022-10-14T06:49:08;31.35;;;16.23;;
16612;SDS011;8419;52.358;9.752;2022-10-14T06:51:54;32.33;;;16.87;;
16612;SDS011;8419;52.358;9.752;2022-10-14T06:54:40;27.87;;;16.30;;
16612;SDS011;8419;52.358;9.752;2022-10-14T06:57:26;27.27;;;16.17;;
16612;SDS011;8419;52.358;9.752;2022-10-14T07:00:12;28.70;;;17.58;;
16612;SDS011;8419;52.358;9.752;2022-10-14T07:02:59;28.62;;;16.92;;
16612;SDS011;8419;52.358;9.752;2022-10-14T07:05:44;29.65;;;17.35;;
16612;SDS011;8419;52.358;9.752;2022-10-14T07:08:30;30.52;;;16.25;;
16612;SDS011;8419;52.358;9.752;2022-10-14T07:11:16;31.73;;;17.12;;
16612;SDS011;8419;52.358;9.752;2022-10-14T07:14:03;31.30;;;17.73;;
16612;SDS011;8419;52.358;9.752;2022-10-14T07:16:49;32.20;;;17.00;;
16612;SDS011;8419;52.358;9.752;2022-10-14T07:19:34;31.85;;;17.55;;
16612;SDS011;8419;52.358;9.752;2022-10-14T07:22:19;30.40;;;17.15;;
16612;SDS011;8419;52.358;9.752;2022-10-14T07:25:06;33.10;;;17.35;;
16612;SDS011;8419;52.358;9.752;2022-10-14T07:27:53;33.20;;;17.98;;
16612;SDS011;8419;52.358;9.752;2022-10-14T07:30:40;30.83;;;16.50;;
16612;SDS011;8419;52.358;9.752;2022-10-14T07:33:26;31.62;;;17.02;;
16612;SDS011;8419;52.358;9.752;2022-10-14T07:36:13;33.45;;;17.92;;
16612;SDS011;8419;52.358;9.752;2022-10-14T07:39:01;32.15;;;17.25;;
16612;SDS011;8419;52.358;9.752;2022-10-14T07:41:49;36.10;;;18.27;;
16612;SDS011;8419;52.358;9.752;2022-10-14T07:44:34;34.58;;;17.65;;
16612;SDS011;8419;52.358;9.752;2022-10-14T07:47:23;31.92;;;17.12;;
16612;SDS011;8419;52.358;9.752;2022-10-14T07:50:08;30.75;;;17.60;;
16612;SDS011;8419;52.358;9.752;2022-10-14T07:52:54;31.80;;;16.87;;
16612;SDS011;8419;52.358;9.752;2022-10-14T07:55:42;32.78;;;17.62;;
16612;SDS011;8419;52.358;9.752;2022-10-14T07:58:35;33.85;;;16.98;;
16612;SDS011;8419;52.358;9.752;2022-10-14T08:01:21;32.78;;;17.20;;
16612;SDS011;8419;52.358;9.752;2022-10-14T08:04:08;32.72;;;17.80;;
16612;SDS011;8419;52.358;9.752;2022-10-14T08:06:55;32.80;;;17.55;;
16612;SDS011;8419;52.358;9.752;2022-10-14T08:09:40;35.20;;;17.70;;
16612;SDS011;8419;52.358;9.752;2022-10-14T08:12:27;32.38;;;16.83;;
16612;SDS011;8419;52.358;9.752;2022-10-14T08:15:13;32.28;;;17.15;;
16612;SDS011;8419;52.358;9.752;2022-10-14T08:17:59;32.28;;;17.62;;
16612;SDS011;8419;52.358;9.752;2022-10-14T08:20:49;31.75;;;17.50;;
16612;SDS011;8419;52.358;9.752;2022-10-14T08:23:36;27.77;;;16.30;;
16612;SDS011;8419;52.358;9.752;2022-10-14T08:26:22;34.97;;;17.33;;
16612;SDS011;8419;52.358;9.752;2022-10-14T08:29:12;27.80;;;15.13;;
16612;SDS011;8419;52.358;9.752;2022-10-14T08:31:58;26.60;;;16.27;;
16612;SDS011;8419;52.358;9.752;2022-10-14T08:34:43;32.03;;;17.87;;
16612;SDS011;8419;52.358;9.752;2022-10-14T08:37:30;33.90;;;17.27;;
16612;SDS011;8419;52.358;9.752;2022-10-14T08:40:16;31.42;;;15.77;;
16612;SDS011;8419;52.358;9.752;2022-10-14T08:43:03;33.47;;;16.42;;
16612;SDS011;8419;52.358;9.752;2022-10-14T08:46:00;32.60;;;17.80;;
16612;SDS011;8419;52.358;9.752;2022-10-14T08:48:54;27.87;;;16.15;;
16612;SDS011;8419;52.358;9.752;2022-10-14T08:51:48;21.83;;;12.70;;
16612;SDS011;8419;52.358;9.752;2022-10-14T08:54:40;20.37;;;12.85;;
16612;SDS011;8419;52.358;9.752;2022-10-14T08:57:33;18.33;;;11.57;;
16612;SDS011;8419;52.358;9.752;2022-10-14T09:00:25;18.12;;;11.05;;
16612;SDS011;8419;52.358;9.752;2022-10-14T09:03:16;15.45;;;9.48;;
16612;SDS011;8419;52.358;9.752;2022-10-14T09:06:06;15.18;;;9.05;;
16612;SDS011;8419;52.358;9.752;2022-10-14T09:08:56;11.30;;;8.48;;
16612;SDS011;8419;52.358;9.752;2022-10-14T09:11:48;10.88;;;7.78;;
16612;SDS011;8419;52.358;9.752;2022-10-14T09:14:40;12.40;;;8.45;;
16612;SDS011;8419;52.358;9.752;2022-10-14T09:17:30;11.98;;;8.35;;
16612;SDS011;8419;52.358;9.752;2022-10-14T09:20:22;10.30;;;6.95;;
16612;SDS011;8419;52.358;9.752;2022-10-14T09:23:11;11.18;;;6.47;;
16612;SDS011;8419;52.358;9.752;2022-10-14T09:26:02;9.00;;;6.53;;
16612;SDS011;8419;52.358;9.752;2022-10-14T09:28:56;8.75;;;6.12;;
16612;SDS011;8419;52.358;9.752;2022-10-14T09:31:41;7.03;;;5.65;;
16612;SDS011;8419;52.358;9.752;2022-10-14T09:34:29;6.93;;;4.97;;
16612;SDS011;8419;52.358;9.752;2022-10-14T09:37:24;7.25;;;5.68;;
16612;SDS011;8419;52.358;9.752;2022-10-14T09:40:14;10.25;;;6.65;;
16612;SDS011;8419;52.358;9.752;2022-10-14T09:43:04;7.37;;;4.82;;
16612;SDS011;8419;52.358;9.752;2022-10-14T09:45:59;6.50;;;4.87;;
16612;SDS011;8419;52.358;9.752;2022-10-14T09:48:46;6.87;;;4.78;;
16612;SDS011;8419;52.358;9.752;2022-10-14T09:51:34;5.37;;;3.75;;
16612;SDS011;8419;52.358;9.752;2022-10-14T09:54:22;4.32;;;3.90;;
16612;SDS011;8419;52.358;9.752;2022-10-14T09:57:15;4.03;;;3.15;;
16612;SDS011;8419;52.358;9.752;2022-10-14T10:00:04;4.35;;;3.10;;
16612;SDS011;8419;52.358;9.752;2022-10-14T10:02:53;5.65;;;2.90;;
16612;SDS011;8419;52.358;9.752;2022-10-14T10:05:39;3.92;;;2.83;;
16612;SDS011;8419;52.358;9.752;2022-10-14T10:08:25;3.67;;;2.78;;
16612;SDS011;8419;52.358;9.752;2022-10-14T10:11:11;2.53;;;2.20;;
16612;SDS011;8419;52.358;9.752;2022-10-14T10:13:57;1.87;;;1.73;;
16612;SDS011;8419;52.358;9.752;2022-10-14T10:16:43;3.70;;;2.22;;
16612;SDS011;8419;52.358;9.752;2022-10-14T10:19:30;2.30;;;1.90;;
16612;SDS011;8419;52.358;9.752;2022-10-14T10:22:22;3.33;;;1.90;;
16612;SDS011;8419;52.358;9.752;2022-10-14T10:25:21;2.42;;;1.87;;
16612;SDS011;8419;52.358;9.752;2022-10-14T10:28:15;2.20;;;1.80;;
16612;SDS011;8419;52.358;9.752;2022-10-14T10:31:04;2.10;;;1.90;;
16612;SDS011;8419;52.358;9.752;2022-10-14T10:34:04;2.28;;;2.08;;
16612;SDS011;8419;52.358;9.752;2022-10-14T10:37:05;7.28;;;2.45;;
16612;SDS011;8419;52.358;9.752;2022-10-14T10:40:09;3.17;;;1.80;;
16612;SDS011;8419;52.358;9.752;2022-10-14T10:43:23;3.17;;;2.00;;
16612;SDS011;8419;52.358;9.752;2022-10-14T10:46:22;2.65;;;1.80;;
16612;SDS011;8419;52.358;9.752;2022-10-14T10:49:35;2.42;;;1.25;;
16612;SDS011;8419;52.358;9.752;2022-10-14T10:52:36;1.37;;;1.27;;
16612;SDS011;8419;52.358;9.752;2022-10-14T10:55:35;1.92;;;1.50;;
16612;SDS011;8419;52.358;9.752;2022-10-14T10:58:36;2.20;;;1.62;;
16612;SDS011;8419;52.358;9.752;2022-10-14T11:01:29;1.75;;;1.45;;
16612;SDS011;8419;52.358;9.752;2022-10-14T11:04:27;1.75;;;1.50;;
16612;SDS011;8419;52.358;9.752;2022-10-14T11:07:18;1.55;;;1.45;;
16612;SDS011;8419;52.358;9.752;2022-10-14T11:10:29;2.03;;;1.40;;
16612;SDS011;8419;52.358;9.752;2022-10-14T11:13:43;1.40;;;1.23;;
16612;SDS011;8419;52.358;9.752;2022-10-14T11:16:36;1.92;;;1.40;;
16612;SDS011;8419;52.358;9.752;2022-10-14T11:19:32;1.83;;;1.37;;
16612;SDS011;8419;52.358;9.752;2022-10-14T11:22:35;3.95;;;1.30;;
16612;SDS011;8419;52.358;9.752;2022-10-14T11:25:39;1.80;;;1.25;;
16612;SDS011;8419;52.358;9.752;2022-10-14T11:28:35;3.92;;;1.35;;
16612;SDS011;8419;52.358;9.752;2022-10-14T11:31:32;1.80;;;1.30;;
16612;SDS011;8419;52.358;9.752;2022-10-14T11:34:26;3.00;;;1.55;;
16612;SDS011;8419;52.358;9.752;2022-10-14T11:37:26;1.95;;;1.30;;
16612;SDS011;8419;52.358;9.752;2022-10-14T11:40:18;1.75;;;1.37;;
16612;SDS011;8419;52.358;9.752;2022-10-14T11:43:15;1.50;;;1.10;;
16612;SDS011;8419;52.358;9.752;2022-10-14T11:46:10;2.37;;;1.30;;
16612;SDS011;8419;52.358;9.752;2022-10-14T11:49:00;2.55;;;1.25;;
16612;SDS011;8419;52.358;9.752;2022-10-14T11:51:54;1.52;;;1.10;;
16612;SDS011;8419;52.358;9.752;2022-10-14T11:54:47;1.65;;;1.40;;
16612;SDS011;8419;52.358;9.752;2022-10-14T11:57:38;1.30;;;1.00;;
16612;SDS011;8419;52.358;9.752;2022-10-14T12:00:28;5.28;;;1.30;;
16612;SDS011;8419;52.358;9.752;2022-10-14T12:03:39;1.58;;;1.10;;
16612;SDS011;8419;52.358;9.752;2022-10-14T12:06:36;1.17;;;1.08;;
16612;SDS011;8419;52.358;9.752;2022-10-14T12:09:27;0.70;;;0.70;;
16612;SDS011;8419;52.358;9.752;2022-10-14T12:12:23;1.55;;;1.08;;
16612;SDS011;8419;52.358;9.752;2022-10-14T12:15:13;0.93;;;0.90;;
16612;SDS011;8419;52.358;9.752;2022-10-14T12:18:04;1.50;;;0.88;;
16612;SDS011;8419;52.358;9.752;2022-10-14T12:20:53;1.23;;;0.90;;
16612;SDS011;8419;52.358;9.752;2022-10-14T12:23:45;0.88;;;0.85;;
16612;SDS011;8419;52.358;9.752;2022-10-14T12:26:42;1.77;;;0.80;;
16612;SDS011;8419;52.358;9.752;2022-10-14T12:29:34;1.15;;;0.93;;
16612;SDS011;8419;52.358;9.752;2022-10-14T12:32:22;1.35;;;0.85;;
16612;SDS011;8419;52.358;9.752;2022-10-14T12:35:43;1.27;;;0.88;;
16612;SDS011;8419;52.358;9.752;2022-10-14T12:38:31;2.12;;;0.80;;
16612;SDS011;8419;52.358;9.752;2022-10-14T12:41:32;1.15;;;0.95;;
16612;SDS011;8419;52.358;9.752;2022-10-14T12:44:30;1.87;;;0.80;;
16612;SDS011;8419;52.358;9.752;2022-10-14T12:47:20;1.42;;;0.90;;
16612;SDS011;8419;52.358;9.752;2022-10-14T12:50:24;0.95;;;0.90;;
16612;SDS011;8419;52.358;9.752;2022-10-14T12:53:15;1.58;;;1.35;;
16612;SDS011;8419;52.358;9.752;2022-10-14T12:56:06;1.23;;;1.02;;
16612;SDS011;8419;52.358;9.752;2022-10-14T12:58:54;0.80;;;0.80;;
16612;SDS011;8419;52.358;9.752;2022-10-14T13:01:44;1.15;;;1.00;;
16612;SDS011;8419;52.358;9.752;2022-10-14T13:04:30;2.28;;;1.20;;
16612;SDS011;8419;52.358;9.752;2022-10-14T13:07:28;1.45;;;0.95;;
16612;SDS011;8419;52.358;9.752;2022-10-14T13:13:49;0.93;;;0.90;;
16612;SDS011;8419;52.358;9.752;2022-10-14T13:23:36;3.55;;;1.20;;
16612;SDS011;8419;52.358;9.752;2022-10-14T13:26:34;0.90;;;0.80;;
16612;SDS011;8419;52.358;9.752;2022-10-14T13:29:25;1.48;;;1.27;;
16612;SDS011;8419;52.358;9.752;2022-10-14T13:32:23;1.08;;;0.90;;
16612;SDS011;8419;52.358;9.752;2022-10-14T13:35:17;2.50;;;1.10;;
16612;SDS011;8419;52.358;9.752;2022-10-14T13:38:11;0.82;;;0.80;;
16612;SDS011;8419;52.358;9.752;2022-10-14T13:40:59;1.02;;;0.93;;
16612;SDS011;8419;52.358;9.752;2022-10-14T13:43:46;3.03;;;0.90;;
16612;SDS011;8419;52.358;9.752;2022-10-14T13:46:37;1.55;;;1.10;;
16612;SDS011;8419;52.358;9.752;2022-10-14T13:49:26;1.05;;;0.90;;
16612;SDS011;8419;52.358;9.752;2022-10-14T13:52:19;1.33;;;0.90;;
16612;SDS011;8419;52.358;9.752;2022-10-14T13:55:14;3.08;;;1.27;;
16612;SDS011;8419;52.358;9.752;2022-10-14T13:58:08;1.92;;;1.30;;
16612;SDS011;8419;52.358;9.752;2022-10-14T14:00:59;1.00;;;0.90;;
16612;SDS011;8419;52.358;9.752;2022-10-14T14:03:51;1.17;;;1.02;;
16612;SDS011;8419;52.358;9.752;2022-10-14T14:06:51;2.87;;;1.20;;
16612;SDS011;8419;52.358;9.752;2022-10-14T14:09:41;1.52;;;0.80;;
16612;SDS011;8419;52.358;9.752;2022-10-14T14:12:36;3.58;;;1.00;;
16612;SDS011;8419;52.358;9.752;2022-10-14T14:15:26;1.40;;;1.00;;
16612;SDS011;8419;52.358;9.752;2022-10-14T14:18:23;1.98;;;1.15;;
16612;SDS011;8419;52.358;9.752;2022-10-14T14:21:11;2.65;;;1.37;;
16612;SDS011;8419;52.358;9.752;2022-10-14T14:23:58;1.67;;;1.00;;
16612;SDS011;8419;52.358;9.752;2022-10-14T14:26:44;2.08;;;1.25;;
16612;SDS011;8419;52.358;9.752;2022-10-14T14:29:31;3.37;;;1.35;;
16612;SDS011;8419;52.358;9.752;2022-10-14T14:32:19;1.67;;;1.50;;
16612;SDS011;8419;52.358;9.752;2022-10-14T14:35:09;4.55;;;1.60;;
16612;SDS011;8419;52.358;9.752;2022-10-14T14:37:57;1.67;;;1.20;;
16612;SDS011;8419;52.358;9.752;2022-10-14T14:40:46;1.87;;;1.40;;
16612;SDS011;8419;52.358;9.752;2022-10-14T14:43:32;1.52;;;1.33;;
16612;SDS011;8419;52.358;9.752;2022-10-14T14:46:20;2.15;;;1.20;;
16612;SDS011;8419;52.358;9.752;2022-10-14T14:49:12;2.92;;;1.02;;
16612;SDS011;8419;52.358;9.752;2022-10-14T14:52:01;2.45;;;1.12;;
16612;SDS011;8419;52.358;9.752;2022-10-14T14:54:48;2.42;;;1.92;;
16612;SDS011;8419;52.358;9.752;2022-10-14T14:57:34;3.45;;;1.62;;
16612;SDS011;8419;52.358;9.752;2022-10-14T15:00:20;1.20;;;1.10;;
16612;SDS011;8419;52.358;9.752;2022-10-14T15:03:07;2.03;;;1.80;;
16612;SDS011;8419;52.358;9.752;2022-10-14T15:05:54;3.40;;;1.45;;
16612;SDS011;8419;52.358;9.752;2022-10-14T15:08:47;4.10;;;1.58;;
16612;SDS011;8419;52.358;9.752;2022-10-14T15:11:33;1.87;;;1.40;;
16612;SDS011;8419;52.358;9.752;2022-10-14T15:14:31;6.28;;;1.62;;
16612;SDS011;8419;52.358;9.752;2022-10-14T15:17:24;3.37;;;1.80;;
16612;SDS011;8419;52.358;9.752;2022-10-14T15:20:27;2.62;;;1.87;;
16612;SDS011;8419;52.358;9.752;2022-10-14T15:23:38;1.92;;;1.65;;
16612;SDS011;8419;52.358;9.752;2022-10-14T15:26:31;2.12;;;1.67;;
16612;SDS011;8419;52.358;9.752;2022-10-14T15:29:19;3.17;;;1.73;;
16612;SDS011;8419;52.358;9.752;2022-10-14T15:32:13;2.72;;;1.60;;
16612;SDS011;8419;52.358;9.752;2022-10-14T15:35:01;2.75;;;1.65;;
16612;SDS011;8419;52.358;9.752;2022-10-14T15:37:46;6.80;;;1.90;;
16612;SDS011;8419;52.358;9.752;2022-10-14T15:40:33;2.55;;;2.15;;
16612;SDS011;8419;52.358;9.752;2022-10-14T15:43:19;2.72;;;2.00;;
16612;SDS011;8419;52.358;9.752;2022-10-14T15:46:08;2.97;;;2.20;;
16612;SDS011;8419;52.358;9.752;2022-10-14T15:49:18;2.40;;;2.00;;
16612;SDS011;8419;52.358;9.752;2022-10-14T15:52:10;3.12;;;2.08;;
16612;SDS011;8419;52.358;9.752;2022-10-14T15:54:59;2.67;;;1.67;;
16612;SDS011;8419;52.358;9.752;2022-10-14T15:57:57;2.67;;;2.05;;
16612;SDS011;8419;52.358;9.752;2022-10-14T16:00:42;2.25;;;2.00;;
16612;SDS011;8419;52.358;9.752;2022-10-14T16:03:30;2.60;;;2.35;;
16612;SDS011;8419;52.358;9.752;2022-10-14T16:06:16;2.67;;;2.05;;
16612;SDS011;8419;52.358;9.752;2022-10-14T16:09:05;3.00;;;2.25;;
16612;SDS011;8419;52.358;9.752;2022-10-14T16:11:51;3.20;;;2.65;;
16612;SDS011;8419;52.358;9.752;2022-10-14T16:14:40;6.30;;;2.47;;
16612;SDS011;8419;52.358;9.752;2022-10-14T16:17:26;5.95;;;3.90;;
16612;SDS011;8419;52.358;9.752;2022-10-14T16:20:13;2.87;;;2.58;;
16612;SDS011;8419;52.358;9.752;2022-10-14T16:22:59;4.18;;;2.70;;
16612;SDS011;8419;52.358;9.752;2022-10-14T16:25:48;2.75;;;2.10;;
16612;SDS011;8419;52.358;9.752;2022-10-14T16:28:34;3.85;;;2.40;;
16612;SDS011;8419;52.358;9.752;2022-10-14T16:31:20;2.97;;;2.35;;
16612;SDS011;8419;52.358;9.752;2022-10-14T16:34:07;6.35;;;3.08;;
16612;SDS011;8419;52.358;9.752;2022-10-14T16:36:53;3.85;;;2.65;;
16612;SDS011;8419;52.358;9.752;2022-10-14T16:39:39;4.50;;;2.60;;
16612;SDS011;8419;52.358;9.752;2022-10-14T16:42:25;3.80;;;3.05;;
16612;SDS011;8419;52.358;9.752;2022-10-14T16:45:11;4.70;;;3.12;;
16612;SDS011;8419;52.358;9.752;2022-10-14T16:48:00;3.62;;;2.40;;
16612;SDS011;8419;52.358;9.752;2022-10-14T16:50:47;5.37;;;2.85;;
16612;SDS011;8419;52.358;9.752;2022-10-14T16:53:34;6.47;;;3.30;;
16612;SDS011;8419;52.358;9.752;2022-10-14T16:56:28;3.30;;;2.72;;
16612;SDS011;8419;52.358;9.752;2022-10-14T16:59:32;4.25;;;3.40;;
16612;SDS011;8419;52.358;9.752;2022-10-14T17:02:19;4.18;;;3.55;;
16612;SDS011;8419;52.358;9.752;2022-10-14T17:05:05;7.35;;;3.92;;
16612;SDS011;8419;52.358;9.752;2022-10-14T17:07:52;4.65;;;3.40;;
16612;SDS011;8419;52.358;9.752;2022-10-14T17:10:38;5.62;;;3.37;;
16612;SDS011;8419;52.358;9.752;2022-10-14T17:13:23;5.28;;;3.70;;